map of KMKN home
KMKN - Airport
Location
City:  Comanche, Texas, United States
Name:Comanche County-City Airport
ICAO:KMKN
FAA LID:MKN

Details
Type:Airport (Airfield)
Use:Public/Civil
Latitude:3155'13"N (31.920306)
Longitude:9835'57"W (-98.599193)
Datum:WGS 1984
Elevation:1386 ft (422 m)
Variation:4.24E (WMM2015 magnetic declination)
-0.11 annual change
Runways:1
Longest:4497 × 75 ft (1371 × 23 m), paved

Time
Time Zone:UTC-6 (DST-5)
Local Time:

Weather
METAR:KMKN 191915Z AUTO 04003KT 10SM SCT023 OVC037 11/03 A3019 RMK AO2 T01070025

Related Locations
Nearby:
Farthest:RRG: 11043 mi / 17772 km
Plaine Corail [Sir Gatan Duval Airport (Plaine Corail Airport)], Rodrigues Island, MU

Find:

   beyond  
but within

Other Information
Maps:
NOTAMs:
Links:
Sources:

  
  • flag of United States
  • flag of Texas
  

Sectional Chart

Flight Planning
at skyvector.com

Satellite Image

Google Maps Satellite view

 

Copyright © 2004-2018 Karl L. Swartz. All rights reserved.
The Great Circle Mapper name and logo are trademarks of the Great Circle Mapper.
All other trademarks mentioned herein belong to their respective owners.
Please see credits for attibutions and further copyright information.

  Follow gcmap on Facebook Follow gcmap on Twitter Follow gcmap on Google+ GCmap on LinkedIn

hCard Microformat

Geo Microformat